sensor_id;sensor_type;location;lat;lon;timestamp;temperature;humidity
19214;DHT22;9741;51.020;5.304;2023-03-15T00:01:01;5.20;59.40
19214;DHT22;9741;51.020;5.304;2023-03-15T00:03:29;5.20;59.40
19214;DHT22;9741;51.020;5.304;2023-03-15T00:05:56;5.20;59.40
19214;DHT22;9741;51.020;5.304;2023-03-15T00:08:23;5.20;59.30
19214;DHT22;9741;51.020;5.304;2023-03-15T00:10:51;5.30;59.40
19214;DHT22;9741;51.020;5.304;2023-03-15T00:13:18;5.20;59.30
19214;DHT22;9741;51.020;5.304;2023-03-15T00:15:47;5.20;59.30
19214;DHT22;9741;51.020;5.304;2023-03-15T00:18:15;5.10;59.20
19214;DHT22;9741;51.020;5.304;2023-03-15T00:20:42;5.10;59.30
19214;DHT22;9741;51.020;5.304;2023-03-15T00:23:10;5.00;59.30
19214;DHT22;9741;51.020;5.304;2023-03-15T00:25:37;4.90;59.20
19214;DHT22;9741;51.020;5.304;2023-03-15T00:28:06;4.80;59.20
19214;DHT22;9741;51.020;5.304;2023-03-15T00:30:33;4.80;59.30
19214;DHT22;9741;51.020;5.304;2023-03-15T00:33:00;4.70;59.20
19214;DHT22;9741;51.020;5.304;2023-03-15T00:35:30;4.60;59.20
19214;DHT22;9741;51.020;5.304;2023-03-15T00:37:58;4.50;59.10
19214;DHT22;9741;51.020;5.304;2023-03-15T00:40:26;4.40;59.10
19214;DHT22;9741;51.020;5.304;2023-03-15T00:42:53;4.40;59.10
19214;DHT22;9741;51.020;5.304;2023-03-15T00:45:23;4.30;59.10
19214;DHT22;9741;51.020;5.304;2023-03-15T00:47:51;4.20;59.10
19214;DHT22;9741;51.020;5.304;2023-03-15T00:50:19;4.10;59.10
19214;DHT22;9741;51.020;5.304;2023-03-15T00:52:46;4.00;59.20
19214;DHT22;9741;51.020;5.304;2023-03-15T00:55:16;4.00;59.40
19214;DHT22;9741;51.020;5.304;2023-03-15T00:57:45;4.00;59.60
19214;DHT22;9741;51.020;5.304;2023-03-15T01:00:15;4.00;59.70
19214;DHT22;9741;51.020;5.304;2023-03-15T01:02:46;4.00;59.80
19214;DHT22;9741;51.020;5.304;2023-03-15T01:05:13;4.00;59.90
19214;DHT22;9741;51.020;5.304;2023-03-15T01:07:40;4.10;60.00
19214;DHT22;9741;51.020;5.304;2023-03-15T01:10:11;4.10;60.00
19214;DHT22;9741;51.020;5.304;2023-03-15T01:12:38;4.10;59.90
19214;DHT22;9741;51.020;5.304;2023-03-15T01:15:07;4.10;59.80
19214;DHT22;9741;51.020;5.304;2023-03-15T01:17:36;4.00;59.70
19214;DHT22;9741;51.020;5.304;2023-03-15T01:20:06;4.00;59.70
19214;DHT22;9741;51.020;5.304;2023-03-15T01:22:33;3.90;59.60
19214;DHT22;9741;51.020;5.304;2023-03-15T01:25:00;3.80;59.60
19214;DHT22;9741;51.020;5.304;2023-03-15T01:27:27;3.80;59.60
19214;DHT22;9741;51.020;5.304;2023-03-15T01:29:54;3.70;59.70
19214;DHT22;9741;51.020;5.304;2023-03-15T01:32:22;3.60;59.70
19214;DHT22;9741;51.020;5.304;2023-03-15T01:34:49;3.60;59.80
19214;DHT22;9741;51.020;5.304;2023-03-15T01:37:17;3.60;60.00
19214;DHT22;9741;51.020;5.304;2023-03-15T01:39:44;3.50;60.00
19214;DHT22;9741;51.020;5.304;2023-03-15T01:42:11;3.60;60.10
19214;DHT22;9741;51.020;5.304;2023-03-15T01:44:49;3.60;60.10
19214;DHT22;9741;51.020;5.304;2023-03-15T01:47:16;3.60;60.20
19214;DHT22;9741;51.020;5.304;2023-03-15T01:49:45;3.60;60.20
19214;DHT22;9741;51.020;5.304;2023-03-15T01:52:18;3.60;60.30
19214;DHT22;9741;51.020;5.304;2023-03-15T01:54:50;3.60;60.30
19214;DHT22;9741;51.020;5.304;2023-03-15T01:57:21;3.60;60.40
19214;DHT22;9741;51.020;5.304;2023-03-15T01:59:53;3.60;60.40
19214;DHT22;9741;51.020;5.304;2023-03-15T02:02:22;3.60;60.40
19214;DHT22;9741;51.020;5.304;2023-03-15T02:04:53;3.60;60.40
19214;DHT22;9741;51.020;5.304;2023-03-15T02:07:24;3.60;60.50
19214;DHT22;9741;51.020;5.304;2023-03-15T02:09:57;3.60;60.60
19214;DHT22;9741;51.020;5.304;2023-03-15T02:12:27;3.70;60.70
19214;DHT22;9741;51.020;5.304;2023-03-15T02:14:57;3.70;60.70
19214;DHT22;9741;51.020;5.304;2023-03-15T02:17:30;3.70;60.80
19214;DHT22;9741;51.020;5.304;2023-03-15T02:20:07;3.80;60.90
19214;DHT22;9741;51.020;5.304;2023-03-15T02:22:45;3.80;60.90
19214;DHT22;9741;51.020;5.304;2023-03-15T02:25:19;3.80;60.90
19214;DHT22;9741;51.020;5.304;2023-03-15T02:27:50;3.90;60.90
19214;DHT22;9741;51.020;5.304;2023-03-15T02:30:17;3.90;60.90
19214;DHT22;9741;51.020;5.304;2023-03-15T02:32:44;3.90;60.90
19214;DHT22;9741;51.020;5.304;2023-03-15T02:35:12;3.90;60.90
19214;DHT22;9741;51.020;5.304;2023-03-15T02:37:48;3.90;60.90
19214;DHT22;9741;51.020;5.304;2023-03-15T02:40:17;3.90;61.00
19214;DHT22;9741;51.020;5.304;2023-03-15T02:42:45;3.90;61.00
19214;DHT22;9741;51.020;5.304;2023-03-15T02:45:16;3.90;61.10
19214;DHT22;9741;51.020;5.304;2023-03-15T02:47:43;3.90;61.10
19214;DHT22;9741;51.020;5.304;2023-03-15T02:50:11;4.00;61.20
19214;DHT22;9741;51.020;5.304;2023-03-15T02:52:38;4.00;61.30
19214;DHT22;9741;51.020;5.304;2023-03-15T02:55:06;4.00;61.20
19214;DHT22;9741;51.020;5.304;2023-03-15T02:57:33;4.00;61.20
19214;DHT22;9741;51.020;5.304;2023-03-15T03:00:00;4.00;61.20
19214;DHT22;9741;51.020;5.304;2023-03-15T03:02:42;4.00;61.20
19214;DHT22;9741;51.020;5.304;2023-03-15T03:05:10;4.00;61.20
19214;DHT22;9741;51.020;5.304;2023-03-15T03:07:37;4.00;61.30
19214;DHT22;9741;51.020;5.304;2023-03-15T03:10:05;4.00;61.30
19214;DHT22;9741;51.020;5.304;2023-03-15T03:12:32;4.00;61.40
19214;DHT22;9741;51.020;5.304;2023-03-15T03:14:59;4.00;61.50
19214;DHT22;9741;51.020;5.304;2023-03-15T03:17:28;4.00;61.50
19214;DHT22;9741;51.020;5.304;2023-03-15T03:19:56;4.00;61.50
19214;DHT22;9741;51.020;5.304;2023-03-15T03:22:23;4.10;61.50
19214;DHT22;9741;51.020;5.304;2023-03-15T03:24:50;4.10;61.60
19214;DHT22;9741;51.020;5.304;2023-03-15T03:27:18;4.10;61.50
19214;DHT22;9741;51.020;5.304;2023-03-15T03:29:46;4.10;61.50
19214;DHT22;9741;51.020;5.304;2023-03-15T03:32:13;4.00;61.30
19214;DHT22;9741;51.020;5.304;2023-03-15T03:34:40;3.90;61.30
19214;DHT22;9741;51.020;5.304;2023-03-15T03:37:15;3.80;61.30
19214;DHT22;9741;51.020;5.304;2023-03-15T03:39:42;3.80;61.40
19214;DHT22;9741;51.020;5.304;2023-03-15T03:42:10;3.60;61.50
19214;DHT22;9741;51.020;5.304;2023-03-15T03:44:37;3.60;61.70
19214;DHT22;9741;51.020;5.304;2023-03-15T03:47:04;3.60;61.80
19214;DHT22;9741;51.020;5.304;2023-03-15T03:49:31;3.60;61.80
19214;DHT22;9741;51.020;5.304;2023-03-15T03:51:58;3.50;61.70
19214;DHT22;9741;51.020;5.304;2023-03-15T03:54:27;3.50;61.90
19214;DHT22;9741;51.020;5.304;2023-03-15T03:56:54;3.40;61.90
19214;DHT22;9741;51.020;5.304;2023-03-15T03:59:21;3.50;62.10
19214;DHT22;9741;51.020;5.304;2023-03-15T04:01:48;3.50;62.20
19214;DHT22;9741;51.020;5.304;2023-03-15T04:04:15;3.50;62.20
19214;DHT22;9741;51.020;5.304;2023-03-15T04:06:42;3.60;62.20
19214;DHT22;9741;51.020;5.304;2023-03-15T04:09:10;3.60;62.20
19214;DHT22;9741;51.020;5.304;2023-03-15T04:11:40;3.70;62.30
19214;DHT22;9741;51.020;5.304;2023-03-15T04:14:08;3.80;62.30
19214;DHT22;9741;51.020;5.304;2023-03-15T04:16:36;3.80;62.20
19214;DHT22;9741;51.020;5.304;2023-03-15T04:19:03;3.80;62.10
19214;DHT22;9741;51.020;5.304;2023-03-15T04:21:30;3.80;62.10
19214;DHT22;9741;51.020;5.304;2023-03-15T04:23:57;3.80;62.00
19214;DHT22;9741;51.020;5.304;2023-03-15T04:26:25;3.80;62.00
19214;DHT22;9741;51.020;5.304;2023-03-15T04:28:54;3.80;62.00
19214;DHT22;9741;51.020;5.304;2023-03-15T04:31:22;3.80;62.10
19214;DHT22;9741;51.020;5.304;2023-03-15T04:33:52;3.80;62.20
19214;DHT22;9741;51.020;5.304;2023-03-15T04:36:19;3.80;62.20
19214;DHT22;9741;51.020;5.304;2023-03-15T04:38:46;3.80;62.30
19214;DHT22;9741;51.020;5.304;2023-03-15T04:41:14;3.80;62.30
19214;DHT22;9741;51.020;5.304;2023-03-15T04:43:42;3.90;62.40
19214;DHT22;9741;51.020;5.304;2023-03-15T04:46:10;3.90;62.40
19214;DHT22;9741;51.020;5.304;2023-03-15T04:48:37;3.90;62.40
19214;DHT22;9741;51.020;5.304;2023-03-15T04:51:06;3.90;62.40
19214;DHT22;9741;51.020;5.304;2023-03-15T04:53:33;3.90;62.40
19214;DHT22;9741;51.020;5.304;2023-03-15T04:56:00;3.90;62.50
19214;DHT22;9741;51.020;5.304;2023-03-15T04:58:27;3.90;62.60
19214;DHT22;9741;51.020;5.304;2023-03-15T05:00:54;4.00;62.60
19214;DHT22;9741;51.020;5.304;2023-03-15T05:03:22;4.00;62.70
19214;DHT22;9741;51.020;5.304;2023-03-15T05:05:49;4.00;62.70
19214;DHT22;9741;51.020;5.304;2023-03-15T05:08:16;4.00;62.60
19214;DHT22;9741;51.020;5.304;2023-03-15T05:10:43;3.90;62.60
19214;DHT22;9741;51.020;5.304;2023-03-15T05:13:10;3.90;62.60
19214;DHT22;9741;51.020;5.304;2023-03-15T05:15:37;3.80;62.60
19214;DHT22;9741;51.020;5.304;2023-03-15T05:18:04;3.80;62.60
19214;DHT22;9741;51.020;5.304;2023-03-15T05:20:32;3.70;62.70
19214;DHT22;9741;51.020;5.304;2023-03-15T05:22:59;3.70;62.70
19214;DHT22;9741;51.020;5.304;2023-03-15T05:25:27;3.60;62.70
19214;DHT22;9741;51.020;5.304;2023-03-15T05:27:54;3.50;62.70
19214;DHT22;9741;51.020;5.304;2023-03-15T05:30:21;3.40;62.60
19214;DHT22;9741;51.020;5.304;2023-03-15T05:32:48;3.30;62.50
19214;DHT22;9741;51.020;5.304;2023-03-15T05:35:16;3.10;62.40
19214;DHT22;9741;51.020;5.304;2023-03-15T05:37:44;3.00;62.50
19214;DHT22;9741;51.020;5.304;2023-03-15T05:40:12;3.00;62.60
19214;DHT22;9741;51.020;5.304;2023-03-15T05:42:40;2.90;62.60
19214;DHT22;9741;51.020;5.304;2023-03-15T05:45:07;2.80;62.70
19214;DHT22;9741;51.020;5.304;2023-03-15T05:47:35;2.70;62.70
19214;DHT22;9741;51.020;5.304;2023-03-15T05:50:02;2.70;62.70
19214;DHT22;9741;51.020;5.304;2023-03-15T05:52:29;2.60;62.70
19214;DHT22;9741;51.020;5.304;2023-03-15T05:54:58;2.60;62.80
19214;DHT22;9741;51.020;5.304;2023-03-15T05:57:25;2.50;62.70
19214;DHT22;9741;51.020;5.304;2023-03-15T05:59:52;2.50;62.80
19214;DHT22;9741;51.020;5.304;2023-03-15T06:02:19;2.40;62.70
19214;DHT22;9741;51.020;5.304;2023-03-15T06:04:46;2.40;62.80
19214;DHT22;9741;51.020;5.304;2023-03-15T06:07:13;2.30;62.80
19214;DHT22;9741;51.020;5.304;2023-03-15T06:09:40;2.30;62.80
19214;DHT22;9741;51.020;5.304;2023-03-15T06:12:09;2.30;62.90
19214;DHT22;9741;51.020;5.304;2023-03-15T06:14:36;2.30;63.00
19214;DHT22;9741;51.020;5.304;2023-03-15T06:17:03;2.30;63.10
19214;DHT22;9741;51.020;5.304;2023-03-15T06:19:30;2.40;63.20
19214;DHT22;9741;51.020;5.304;2023-03-15T06:21:57;2.40;63.20
19214;DHT22;9741;51.020;5.304;2023-03-15T06:24:24;2.40;63.10
19214;DHT22;9741;51.020;5.304;2023-03-15T06:26:51;2.40;63.00
19214;DHT22;9741;51.020;5.304;2023-03-15T06:29:24;2.40;63.00
19214;DHT22;9741;51.020;5.304;2023-03-15T06:31:51;2.40;63.10
19214;DHT22;9741;51.020;5.304;2023-03-15T06:34:18;2.40;63.00
19214;DHT22;9741;51.020;5.304;2023-03-15T06:36:45;2.40;63.00
19214;DHT22;9741;51.020;5.304;2023-03-15T06:39:14;2.40;63.10
19214;DHT22;9741;51.020;5.304;2023-03-15T06:41:41;2.50;63.20
19214;DHT22;9741;51.020;5.304;2023-03-15T06:44:08;2.50;63.20
19214;DHT22;9741;51.020;5.304;2023-03-15T06:46:37;2.50;63.20
19214;DHT22;9741;51.020;5.304;2023-03-15T06:49:04;2.60;63.30
19214;DHT22;9741;51.020;5.304;2023-03-15T06:51:31;2.60;63.30
19214;DHT22;9741;51.020;5.304;2023-03-15T06:53:58;2.60;63.20
19214;DHT22;9741;51.020;5.304;2023-03-15T06:56:25;2.70;63.30
19214;DHT22;9741;51.020;5.304;2023-03-15T06:58:52;2.70;63.30
19214;DHT22;9741;51.020;5.304;2023-03-15T07:01:19;2.80;63.40
19214;DHT22;9741;51.020;5.304;2023-03-15T07:03:47;2.80;63.50
19214;DHT22;9741;51.020;5.304;2023-03-15T07:06:15;2.90;63.50
19214;DHT22;9741;51.020;5.304;2023-03-15T07:08:42;2.90;63.50
19214;DHT22;9741;51.020;5.304;2023-03-15T07:11:08;3.00;63.60
19214;DHT22;9741;51.020;5.304;2023-03-15T07:13:35;3.10;63.70
19214;DHT22;9741;51.020;5.304;2023-03-15T07:16:03;3.20;63.70
19214;DHT22;9741;51.020;5.304;2023-03-15T07:18:31;3.20;63.60
19214;DHT22;9741;51.020;5.304;2023-03-15T07:21:01;3.30;63.70
19214;DHT22;9741;51.020;5.304;2023-03-15T07:23:29;3.40;63.70
19214;DHT22;9741;51.020;5.304;2023-03-15T07:25:56;3.40;63.70
19214;DHT22;9741;51.020;5.304;2023-03-15T07:28:24;3.50;63.70
19214;DHT22;9741;51.020;5.304;2023-03-15T07:30:52;3.60;64.30
19214;DHT22;9741;51.020;5.304;2023-03-15T07:33:20;3.60;63.80
19214;DHT22;9741;51.020;5.304;2023-03-15T07:35:48;3.70;63.80
19214;DHT22;9741;51.020;5.304;2023-03-15T07:38:17;3.80;63.90
19214;DHT22;9741;51.020;5.304;2023-03-15T07:40:44;3.90;64.00
19214;DHT22;9741;51.020;5.304;2023-03-15T07:43:13;3.90;64.00
19214;DHT22;9741;51.020;5.304;2023-03-15T07:45:41;4.00;64.00
19214;DHT22;9741;51.020;5.304;2023-03-15T07:48:08;4.10;64.10
19214;DHT22;9741;51.020;5.304;2023-03-15T07:50:36;4.20;64.10
19214;DHT22;9741;51.020;5.304;2023-03-15T07:53:03;4.30;64.20
19214;DHT22;9741;51.020;5.304;2023-03-15T07:55:32;4.40;64.70
19214;DHT22;9741;51.020;5.304;2023-03-15T07:58:07;4.50;64.40
19214;DHT22;9741;51.020;5.304;2023-03-15T08:00:34;4.60;64.40
19214;DHT22;9741;51.020;5.304;2023-03-15T08:03:03;4.70;64.40
19214;DHT22;9741;51.020;5.304;2023-03-15T08:05:35;4.70;64.40
19214;DHT22;9741;51.020;5.304;2023-03-15T08:08:05;4.80;64.40
19214;DHT22;9741;51.020;5.304;2023-03-15T08:10:33;4.90;64.50
19214;DHT22;9741;51.020;5.304;2023-03-15T08:13:01;5.10;64.60
19214;DHT22;9741;51.020;5.304;2023-03-15T08:15:28;5.10;64.60
19214;DHT22;9741;51.020;5.304;2023-03-15T08:17:55;5.20;64.60
19214;DHT22;9741;51.020;5.304;2023-03-15T08:20:22;5.30;64.70
19214;DHT22;9741;51.020;5.304;2023-03-15T08:22:49;5.40;64.80
19214;DHT22;9741;51.020;5.304;2023-03-15T08:25:18;5.60;65.00
19214;DHT22;9741;51.020;5.304;2023-03-15T08:27:48;5.70;65.00
19214;DHT22;9741;51.020;5.304;2023-03-15T08:30:16;5.90;65.70
19214;DHT22;9741;51.020;5.304;2023-03-15T08:32:45;6.10;65.30
19214;DHT22;9741;51.020;5.304;2023-03-15T08:35:14;6.20;65.30
19214;DHT22;9741;51.020;5.304;2023-03-15T08:37:41;6.40;65.30
19214;DHT22;9741;51.020;5.304;2023-03-15T08:40:12;6.60;65.30
19214;DHT22;9741;51.020;5.304;2023-03-15T08:42:39;6.80;65.40
19214;DHT22;9741;51.020;5.304;2023-03-15T08:45:09;7.00;65.40
19214;DHT22;9741;51.020;5.304;2023-03-15T08:47:36;7.30;65.60
19214;DHT22;9741;51.020;5.304;2023-03-15T08:50:05;7.80;66.00
19214;DHT22;9741;51.020;5.304;2023-03-15T08:52:33;8.20;65.90
19214;DHT22;9741;51.020;5.304;2023-03-15T08:55:01;8.70;65.70
19214;DHT22;9741;51.020;5.304;2023-03-15T08:57:28;9.10;65.50
19214;DHT22;9741;51.020;5.304;2023-03-15T08:59:57;9.40;65.10
19214;DHT22;9741;51.020;5.304;2023-03-15T09:02:27;9.50;64.80
19214;DHT22;9741;51.020;5.304;2023-03-15T09:04:54;9.60;64.60
19214;DHT22;9741;51.020;5.304;2023-03-15T09:07:21;9.60;64.40
19214;DHT22;9741;51.020;5.304;2023-03-15T09:09:48;9.70;64.50
19214;DHT22;9741;51.020;5.304;2023-03-15T09:12:19;9.80;64.50
19214;DHT22;9741;51.020;5.304;2023-03-15T09:14:47;9.90;64.50
19214;DHT22;9741;51.020;5.304;2023-03-15T09:17:14;10.00;63.50
19214;DHT22;9741;51.020;5.304;2023-03-15T09:19:42;10.10;63.10
19214;DHT22;9741;51.020;5.304;2023-03-15T09:22:09;10.40;63.40
19214;DHT22;9741;51.020;5.304;2023-03-15T09:24:37;10.70;63.10
19214;DHT22;9741;51.020;5.304;2023-03-15T09:27:04;10.90;62.30
19214;DHT22;9741;51.020;5.304;2023-03-15T09:29:31;10.90;61.60
19214;DHT22;9741;51.020;5.304;2023-03-15T09:31:58;10.90;61.10
19214;DHT22;9741;51.020;5.304;2023-03-15T09:34:26;10.80;61.00
19214;DHT22;9741;51.020;5.304;2023-03-15T09:36:55;10.60;60.80
19214;DHT22;9741;51.020;5.304;2023-03-15T09:39:22;10.60;60.70
19214;DHT22;9741;51.020;5.304;2023-03-15T09:41:51;10.50;60.50
19214;DHT22;9741;51.020;5.304;2023-03-15T09:44:33;10.50;60.40
19214;DHT22;9741;51.020;5.304;2023-03-15T09:47:10;10.50;60.30
19214;DHT22;9741;51.020;5.304;2023-03-15T09:49:44;10.70;60.40
19214;DHT22;9741;51.020;5.304;2023-03-15T09:52:24;10.80;60.10
19214;DHT22;9741;51.020;5.304;2023-03-15T09:54:55;10.90;59.60
19214;DHT22;9741;51.020;5.304;2023-03-15T09:57:32;10.90;59.40
19214;DHT22;9741;51.020;5.304;2023-03-15T10:00:04;11.00;59.20
19214;DHT22;9741;51.020;5.304;2023-03-15T10:02:36;11.10;59.10
19214;DHT22;9741;51.020;5.304;2023-03-15T10:05:09;11.10;58.90
19214;DHT22;9741;51.020;5.304;2023-03-15T10:07:38;11.10;58.70
19214;DHT22;9741;51.020;5.304;2023-03-15T10:10:08;11.10;58.60
19214;DHT22;9741;51.020;5.304;2023-03-15T10:12:42;11.10;58.40
19214;DHT22;9741;51.020;5.304;2023-03-15T10:15:25;11.10;58.10
19214;DHT22;9741;51.020;5.304;2023-03-15T10:20:57;11.00;57.60
19214;DHT22;9741;51.020;5.304;2023-03-15T10:23:35;11.20;57.90
19214;DHT22;9741;51.020;5.304;2023-03-15T10:26:05;11.50;57.50
19214;DHT22;9741;51.020;5.304;2023-03-15T10:28:34;11.80;56.70
19214;DHT22;9741;51.020;5.304;2023-03-15T10:31:10;12.00;55.70
19214;DHT22;9741;51.020;5.304;2023-03-15T10:33:39;12.00;54.90
19214;DHT22;9741;51.020;5.304;2023-03-15T10:36:13;12.00;54.50
19214;DHT22;9741;51.020;5.304;2023-03-15T10:38:43;11.90;54.00
19214;DHT22;9741;51.020;5.304;2023-03-15T10:41:12;11.80;53.80
19214;DHT22;9741;51.020;5.304;2023-03-15T10:43:40;11.60;53.70
19214;DHT22;9741;51.020;5.304;2023-03-15T10:46:09;11.60;53.70
19214;DHT22;9741;51.020;5.304;2023-03-15T10:48:38;11.60;53.70
19214;DHT22;9741;51.020;5.304;2023-03-15T10:51:12;11.60;53.60
19214;DHT22;9741;51.020;5.304;2023-03-15T10:53:52;11.80;53.80
19214;DHT22;9741;51.020;5.304;2023-03-15T10:56:23;11.90;53.50
19214;DHT22;9741;51.020;5.304;2023-03-15T10:58:52;12.10;53.40
19214;DHT22;9741;51.020;5.304;2023-03-15T11:01:24;12.20;53.00
19214;DHT22;9741;51.020;5.304;2023-03-15T11:04:09;12.30;52.70
19214;DHT22;9741;51.020;5.304;2023-03-15T11:06:41;12.50;52.90
19214;DHT22;9741;51.020;5.304;2023-03-15T11:09:12;12.60;52.80
19214;DHT22;9741;51.020;5.304;2023-03-15T11:12:00;12.60;52.70
19214;DHT22;9741;51.020;5.304;2023-03-15T11:14:33;12.80;53.50
19214;DHT22;9741;51.020;5.304;2023-03-15T11:17:01;12.90;52.80
19214;DHT22;9741;51.020;5.304;2023-03-15T11:19:31;13.10;52.80
19214;DHT22;9741;51.020;5.304;2023-03-15T11:22:00;13.20;52.50
19214;DHT22;9741;51.020;5.304;2023-03-15T11:24:30;13.20;52.20
19214;DHT22;9741;51.020;5.304;2023-03-15T11:27:00;13.20;52.10
19214;DHT22;9741;51.020;5.304;2023-03-15T11:29:29;13.20;51.90
19214;DHT22;9741;51.020;5.304;2023-03-15T11:31:58;13.10;51.60
19214;DHT22;9741;51.020;5.304;2023-03-15T11:34:36;13.00;51.40
19214;DHT22;9741;51.020;5.304;2023-03-15T11:37:10;12.90;51.20
19214;DHT22;9741;51.020;5.304;2023-03-15T11:39:44;12.80;51.10
19214;DHT22;9741;51.020;5.304;2023-03-15T11:42:20;12.80;51.10
19214;DHT22;9741;51.020;5.304;2023-03-15T11:44:51;12.80;51.10
19214;DHT22;9741;51.020;5.304;2023-03-15T11:47:29;12.80;51.10
19214;DHT22;9741;51.020;5.304;2023-03-15T11:49:57;12.90;51.10
19214;DHT22;9741;51.020;5.304;2023-03-15T11:52:26;13.00;51.00
19214;DHT22;9741;51.020;5.304;2023-03-15T11:54:56;13.20;50.90
19214;DHT22;9741;51.020;5.304;2023-03-15T11:57:40;13.30;50.50
19214;DHT22;9741;51.020;5.304;2023-03-15T12:00:25;13.40;50.10
19214;DHT22;9741;51.020;5.304;2023-03-15T12:03:30;13.40;49.60
19214;DHT22;9741;51.020;5.304;2023-03-15T12:08:47;13.10;49.10
19214;DHT22;9741;51.020;5.304;2023-03-15T12:11:36;12.90;48.70
19214;DHT22;9741;51.020;5.304;2023-03-15T12:14:08;12.70;48.30
19214;DHT22;9741;51.020;5.304;2023-03-15T12:16:45;12.60;48.40
19214;DHT22;9741;51.020;5.304;2023-03-15T12:19:16;12.60;48.30
19214;DHT22;9741;51.020;5.304;2023-03-15T12:21:47;12.60;48.20
19214;DHT22;9741;51.020;5.304;2023-03-15T12:24:21;12.60;48.40
19214;DHT22;9741;51.020;5.304;2023-03-15T12:26:56;12.70;48.40
19214;DHT22;9741;51.020;5.304;2023-03-15T12:29:25;12.80;48.20
19214;DHT22;9741;51.020;5.304;2023-03-15T12:31:58;12.90;47.90
19214;DHT22;9741;51.020;5.304;2023-03-15T12:34:41;12.90;48.30
19214;DHT22;9741;51.020;5.304;2023-03-15T12:37:14;13.10;47.60
19214;DHT22;9741;51.020;5.304;2023-03-15T12:39:47;13.10;47.30
19214;DHT22;9741;51.020;5.304;2023-03-15T12:45:43;13.40;46.90
19214;DHT22;9741;51.020;5.304;2023-03-15T12:48:29;13.50;46.70
19214;DHT22;9741;51.020;5.304;2023-03-15T12:51:10;13.60;46.30
19214;DHT22;9741;51.020;5.304;2023-03-15T12:53:51;13.60;46.30
19214;DHT22;9741;51.020;5.304;2023-03-15T12:56:31;13.60;45.80
19214;DHT22;9741;51.020;5.304;2023-03-15T12:59:03;13.70;45.90
19214;DHT22;9741;51.020;5.304;2023-03-15T13:01:33;13.70;45.90
19214;DHT22;9741;51.020;5.304;2023-03-15T13:04:02;13.80;45.90
19214;DHT22;9741;51.020;5.304;2023-03-15T13:06:42;13.90;45.70
19214;DHT22;9741;51.020;5.304;2023-03-15T13:09:17;13.90;45.40
19214;DHT22;9741;51.020;5.304;2023-03-15T13:11:54;14.00;45.30
19214;DHT22;9741;51.020;5.304;2023-03-15T13:14:35;14.00;45.10
19214;DHT22;9741;51.020;5.304;2023-03-15T13:17:09;13.90;44.80
19214;DHT22;9741;51.020;5.304;2023-03-15T13:19:44;13.90;44.60
19214;DHT22;9741;51.020;5.304;2023-03-15T13:22:17;13.90;44.50
19214;DHT22;9741;51.020;5.304;2023-03-15T13:24:57;13.80;44.30
19214;DHT22;9741;51.020;5.304;2023-03-15T13:27:36;13.80;44.20
19214;DHT22;9741;51.020;5.304;2023-03-15T13:30:32;13.90;44.20
19214;DHT22;9741;51.020;5.304;2023-03-15T13:33:19;13.90;43.70
19214;DHT22;9741;51.020;5.304;2023-03-15T13:35:48;13.80;44.20
19214;DHT22;9741;51.020;5.304;2023-03-15T13:38:30;13.90;43.70
19214;DHT22;9741;51.020;5.304;2023-03-15T13:40:58;13.90;43.60
19214;DHT22;9741;51.020;5.304;2023-03-15T13:43:29;13.90;43.40
19214;DHT22;9741;51.020;5.304;2023-03-15T13:45:57;13.80;43.00
19214;DHT22;9741;51.020;5.304;2023-03-15T13:48:29;13.60;42.80
19214;DHT22;9741;51.020;5.304;2023-03-15T13:51:02;13.40;42.50
19214;DHT22;9741;51.020;5.304;2023-03-15T13:53:34;13.30;42.50
19214;DHT22;9741;51.020;5.304;2023-03-15T13:56:04;13.20;42.50
19214;DHT22;9741;51.020;5.304;2023-03-15T13:58:36;13.00;42.50
19214;DHT22;9741;51.020;5.304;2023-03-15T14:01:06;13.00;42.50
19214;DHT22;9741;51.020;5.304;2023-03-15T14:03:34;13.00;42.50
19214;DHT22;9741;51.020;5.304;2023-03-15T14:06:02;13.00;42.50
19214;DHT22;9741;51.020;5.304;2023-03-15T14:08:32;13.00;42.50
19214;DHT22;9741;51.020;5.304;2023-03-15T14:11:04;13.10;42.30
19214;DHT22;9741;51.020;5.304;2023-03-15T14:13:33;13.10;42.40
19214;DHT22;9741;51.020;5.304;2023-03-15T14:16:02;13.10;42.20
19214;DHT22;9741;51.020;5.304;2023-03-15T14:18:33;13.10;42.10
19214;DHT22;9741;51.020;5.304;2023-03-15T14:21:04;13.10;42.10
19214;DHT22;9741;51.020;5.304;2023-03-15T14:23:36;13.00;41.90
19214;DHT22;9741;51.020;5.304;2023-03-15T14:26:11;13.10;42.00
19214;DHT22;9741;51.020;5.304;2023-03-15T14:28:39;13.10;42.10
19214;DHT22;9741;51.020;5.304;2023-03-15T14:31:07;13.20;42.10
19214;DHT22;9741;51.020;5.304;2023-03-15T14:33:37;13.20;42.00
19214;DHT22;9741;51.020;5.304;2023-03-15T14:36:06;13.20;41.80
19214;DHT22;9741;51.020;5.304;2023-03-15T14:38:36;13.20;41.80
19214;DHT22;9741;51.020;5.304;2023-03-15T14:41:18;13.20;41.70
19214;DHT22;9741;51.020;5.304;2023-03-15T14:43:48;13.20;41.80
19214;DHT22;9741;51.020;5.304;2023-03-15T14:46:15;13.10;41.80
19214;DHT22;9741;51.020;5.304;2023-03-15T14:48:42;13.10;41.80
19214;DHT22;9741;51.020;5.304;2023-03-15T14:51:12;13.10;41.70
19214;DHT22;9741;51.020;5.304;2023-03-15T14:53:43;13.00;41.50
19214;DHT22;9741;51.020;5.304;2023-03-15T14:56:11;13.00;41.50
19214;DHT22;9741;51.020;5.304;2023-03-15T14:58:39;12.90;41.40
19214;DHT22;9741;51.020;5.304;2023-03-15T15:01:07;12.90;41.40
19214;DHT22;9741;51.020;5.304;2023-03-15T15:03:37;12.90;41.40
19214;DHT22;9741;51.020;5.304;2023-03-15T15:06:07;12.90;41.50
19214;DHT22;9741;51.020;5.304;2023-03-15T15:08:36;12.80;41.30
19214;DHT22;9741;51.020;5.304;2023-03-15T15:11:07;12.80;41.30
19214;DHT22;9741;51.020;5.304;2023-03-15T15:13:35;12.80;41.20
19214;DHT22;9741;51.020;5.304;2023-03-15T15:16:03;12.70;40.90
19214;DHT22;9741;51.020;5.304;2023-03-15T15:18:32;12.60;40.80
19214;DHT22;9741;51.020;5.304;2023-03-15T15:21:01;12.60;40.80
19214;DHT22;9741;51.020;5.304;2023-03-15T15:23:29;12.60;40.80
19214;DHT22;9741;51.020;5.304;2023-03-15T15:25:59;12.60;40.80
19214;DHT22;9741;51.020;5.304;2023-03-15T15:28:29;12.60;40.60
19214;DHT22;9741;51.020;5.304;2023-03-15T15:30:58;12.70;40.80
19214;DHT22;9741;51.020;5.304;2023-03-15T15:33:25;12.70;40.90
19214;DHT22;9741;51.020;5.304;2023-03-15T15:35:54;12.70;40.60
19214;DHT22;9741;51.020;5.304;2023-03-15T15:38:22;12.60;40.40
19214;DHT22;9741;51.020;5.304;2023-03-15T15:40:51;12.60;40.30
19214;DHT22;9741;51.020;5.304;2023-03-15T15:43:18;12.50;40.10
19214;DHT22;9741;51.020;5.304;2023-03-15T15:45:47;12.50;40.30
19214;DHT22;9741;51.020;5.304;2023-03-15T15:48:17;12.50;40.40
19214;DHT22;9741;51.020;5.304;2023-03-15T15:50:44;12.50;40.40
19214;DHT22;9741;51.020;5.304;2023-03-15T15:53:15;12.40;40.40
19214;DHT22;9741;51.020;5.304;2023-03-15T15:55:43;12.30;40.20
19214;DHT22;9741;51.020;5.304;2023-03-15T15:58:11;12.20;40.20
19214;DHT22;9741;51.020;5.304;2023-03-15T16:00:40;12.10;40.30
19214;DHT22;9741;51.020;5.304;2023-03-15T16:03:12;12.00;40.30
19214;DHT22;9741;51.020;5.304;2023-03-15T16:05:40;11.80;40.20
19214;DHT22;9741;51.020;5.304;2023-03-15T16:08:15;11.70;40.30
19214;DHT22;9741;51.020;5.304;2023-03-15T16:10:45;11.60;40.30
19214;DHT22;9741;51.020;5.304;2023-03-15T16:13:12;11.40;40.30
19214;DHT22;9741;51.020;5.304;2023-03-15T16:15:39;11.30;40.30
19214;DHT22;9741;51.020;5.304;2023-03-15T16:18:08;11.20;40.50
19214;DHT22;9741;51.020;5.304;2023-03-15T16:20:38;11.20;40.60